createdAt,value
2019-04-03T00:01:05.895Z,9.4
2019-04-03T00:06:11.546Z,9.8
2019-04-03T00:11:16.590Z,9.6
2019-04-03T00:16:21.716Z,9.5
2019-04-03T00:21:26.926Z,9.7
2019-04-03T00:26:32.076Z,9.5
2019-04-03T00:31:37.277Z,10
2019-04-03T00:36:42.787Z,9.5
2019-04-03T00:41:47.895Z,8.7
2019-04-03T00:46:53.786Z,9.1
2019-04-03T00:52:00.795Z,9.4
2019-04-03T00:57:06.163Z,9.3
2019-04-03T01:02:11.435Z,9.6
2019-04-03T01:07:12.698Z,8.5
2019-04-03T01:12:17.784Z,9.1
2019-04-03T01:17:23.523Z,8.6
2019-04-03T01:22:28.990Z,8.9
2019-04-03T01:27:34.355Z,8.9
2019-04-03T01:32:39.729Z,9.1
2019-04-03T01:37:45.499Z,9.1
2019-04-03T01:42:54.645Z,9.4
2019-04-03T01:47:59.822Z,9.5
2019-04-03T01:53:05.482Z,9.7
2019-04-03T01:58:11.391Z,9.5
2019-04-03T02:03:16.702Z,9.3
2019-04-03T02:08:22.372Z,9
2019-04-03T02:13:27.705Z,9.4
2019-04-03T02:18:33.410Z,8.5
2019-04-03T02:23:38.632Z,8.6
2019-04-03T02:28:44.158Z,8.7
2019-04-03T02:33:49.625Z,8.5
2019-04-03T02:38:55.769Z,8.5
2019-04-03T02:44:01.511Z,8.2
2019-04-03T02:49:11.139Z,7.9
2019-04-03T02:54:16.771Z,7.8
2019-04-03T02:59:26.876Z,8.1
2019-04-03T03:04:32.795Z,7.6
2019-04-03T03:09:38.650Z,8.2
2019-04-03T03:14:44.533Z,8
2019-04-03T03:19:49.814Z,8
2019-04-03T03:24:55.100Z,8
2019-04-03T03:30:40.901Z,7.8
2019-04-03T03:35:20.396Z,8.5
2019-04-03T03:40:17.392Z,8.2
2019-04-03T03:45:22.890Z,8.7
2019-04-03T03:50:30.773Z,8.8
2019-04-03T03:55:36.447Z,9.1
2019-04-03T04:00:42.883Z,8.7
2019-04-03T04:05:56.378Z,8.8
2019-04-03T04:10:51.364Z,9
2019-04-03T04:16:04.807Z,8.7
2019-04-03T04:21:00.867Z,8.9
2019-04-03T04:26:06.205Z,8.6
2019-04-03T04:31:13.450Z,8.8
2019-04-03T04:36:18.681Z,9.1
2019-04-03T04:41:25.961Z,9.8
2019-04-03T04:46:31.417Z,9
2019-04-03T04:51:37.323Z,9.7
2019-04-03T05:01:49.656Z,9.6
2019-04-03T05:06:55.223Z,10.2
2019-04-03T05:12:03.655Z,9.4
2019-04-03T05:17:09.028Z,10.5
2019-04-03T05:22:14.807Z,11
2019-04-03T05:27:20.375Z,10.9
2019-04-03T05:32:26.092Z,10.1
2019-04-03T05:37:31.455Z,10.3
2019-04-03T05:42:37.324Z,10.6
2019-04-03T05:47:42.744Z,11.1
2019-04-03T05:52:47.985Z,11.2
2019-04-03T05:57:53.141Z,11.7
2019-04-03T06:02:58.967Z,11.5
2019-04-03T06:08:04.108Z,11.8
2019-04-03T06:13:09.988Z,12.5
2019-04-03T06:18:18.287Z,11.7
2019-04-03T06:23:24.055Z,11.4
2019-04-03T06:28:29.134Z,11.1
2019-04-03T06:33:37.137Z,10.4
2019-04-03T06:38:41.085Z,11
2019-04-03T06:43:52.602Z,10.9
2019-04-03T06:48:49.576Z,11
2019-04-03T06:53:54.784Z,10.5
2019-04-03T06:59:03.486Z,11
2019-04-03T07:04:08.999Z,10.5
2019-04-03T07:09:33.988Z,10.4
2019-04-03T07:14:22.333Z,10.6
2019-04-03T07:19:32.412Z,9.6
2019-04-03T07:24:32.622Z,9.9
2019-04-03T07:29:38.620Z,9
2019-04-03T07:34:43.633Z,11
2019-04-03T07:39:51.143Z,9.9
2019-04-03T07:44:56.526Z,10.4
2019-04-03T07:50:00.491Z,8.9
2019-04-03T07:55:04.312Z,8.7
2019-04-03T08:00:09.965Z,8.1
2019-04-03T08:05:15.379Z,7.8
2019-04-03T08:10:19.611Z,8.8
2019-04-03T08:15:25.912Z,8.6
2019-04-03T08:20:32.412Z,7.3
2019-04-03T08:25:38.580Z,8
2019-04-03T08:30:41.876Z,7.9
2019-04-03T08:35:47.281Z,7
2019-04-03T08:40:54.170Z,7.8
2019-04-03T08:45:59.697Z,7.7
2019-04-03T08:51:05.276Z,7.6
2019-04-03T08:56:10.024Z,7.3
2019-04-03T09:01:13.966Z,7.6
2019-04-03T09:06:19.144Z,7.7
2019-04-03T09:11:27.652Z,7.5
2019-04-03T09:16:33.614Z,6.8
2019-04-03T09:21:39.860Z,7
2019-04-03T09:26:45.624Z,7.5
2019-04-03T09:31:55.793Z,6.9
2019-04-03T09:36:52.396Z,7.1
2019-04-03T09:41:57.499Z,7
2019-04-03T09:47:04.473Z,7.2
2019-04-03T09:52:09.999Z,7.3
2019-04-03T09:57:15.483Z,7.9
2019-04-03T10:02:21.271Z,7.6
2019-04-03T10:07:26.739Z,7.3
2019-04-03T10:12:35.373Z,8.3
2019-04-03T10:17:40.110Z,8.3
2019-04-03T10:22:46.109Z,7.7
2019-04-03T10:27:52.296Z,9.2
2019-04-03T10:33:00.959Z,9.3
2019-04-03T10:38:05.396Z,8.1
2019-04-03T10:43:11.606Z,8.3
2019-04-03T10:48:16.646Z,8.9
2019-04-03T10:53:24.275Z,9.3
2019-04-03T10:58:30.244Z,8.9
2019-04-03T11:03:35.962Z,8.7
2019-04-03T11:08:41.424Z,9.4
2019-04-03T11:13:46.950Z,9
2019-04-03T11:19:04.666Z,8.1
2019-04-03T11:24:02.623Z,8.2
2019-04-03T11:29:11.733Z,9.5
2019-04-03T11:34:19.307Z,9.8
2019-04-03T11:39:25.316Z,9.8
2019-04-03T11:44:30.814Z,10.2
2019-04-03T11:49:36.602Z,10.8
2019-04-03T11:54:42.252Z,9.8
2019-04-03T11:59:48.545Z,10.4
2019-04-03T12:04:54.447Z,9.8
2019-04-03T12:10:04.276Z,10.4
2019-04-03T12:15:09.698Z,10.3
2019-04-03T12:20:16.661Z,10
2019-04-03T12:25:22.646Z,10.4
2019-04-03T12:30:29.381Z,11.1
2019-04-03T12:35:35.301Z,10.7
2019-04-03T12:40:41.207Z,10.9
2019-04-03T12:45:49.045Z,10.7
2019-04-03T12:50:53.341Z,10.3
2019-04-03T12:55:57.978Z,11
2019-04-03T13:01:04.675Z,10.3
2019-04-03T13:06:13.374Z,10.4
2019-04-03T13:11:21.448Z,10.7
2019-04-03T13:16:26.828Z,10.9
2019-04-03T13:21:32.825Z,11.3
2019-04-03T13:26:39.184Z,10.7
2019-04-03T13:31:47.232Z,11
2019-04-03T13:36:53.271Z,10.8
2019-04-03T13:41:59.358Z,10.7
2019-04-03T13:47:09.214Z,10.6
2019-04-03T13:52:15.383Z,10.1
2019-04-03T13:57:21.501Z,10
2019-04-03T14:02:27.640Z,11
2019-04-03T14:07:33.004Z,9.9
2019-04-03T14:12:45.109Z,10.1
2019-04-03T14:17:53.295Z,10.7
2019-04-03T14:22:43.123Z,10.9
2019-04-03T14:27:48.863Z,11.1
2019-04-03T14:32:55.918Z,10.3
2019-04-03T14:38:02.418Z,10.5
2019-04-03T14:43:09.060Z,11.1
2019-04-03T14:48:14.996Z,10.5
2019-04-03T14:53:22.507Z,9.5
2019-04-03T14:58:28.388Z,9.8
2019-04-03T15:03:35.443Z,9.4
2019-04-03T15:08:41.733Z,9.7
2019-04-03T15:13:44.245Z,10.3
2019-04-03T15:18:53.547Z,10.1
2019-04-03T15:23:59.880Z,10.8
2019-04-03T15:29:06.005Z,10.5
2019-04-03T15:34:11.908Z,10.6
2019-04-03T15:39:18.450Z,11.4
2019-04-03T15:44:25.730Z,10.7
2019-04-03T15:49:34.008Z,10.2
2019-04-03T15:54:35.480Z,10.1
2019-04-03T15:59:40.987Z,10.1
2019-04-03T16:04:46.572Z,10.6
2019-04-03T16:09:52.749Z,10.8
2019-04-03T16:14:53.122Z,10.1
2019-04-03T16:20:01.290Z,10.5
2019-04-03T16:25:06.964Z,10.4
2019-04-03T16:30:18.875Z,10.1
2019-04-03T16:35:17.476Z,10.5
2019-04-03T16:40:26.160Z,10.6
2019-04-03T16:45:32.277Z,10.9
2019-04-03T16:50:42.831Z,10.3
2019-04-03T16:55:44.707Z,10.7
2019-04-03T17:00:52.554Z,10.4
2019-04-03T17:05:58.845Z,11.5
2019-04-03T17:11:04.707Z,11.4
2019-04-03T17:16:08.709Z,11.4
2019-04-03T17:21:15.332Z,11.7
2019-04-03T17:26:21.582Z,12.1
2019-04-03T17:31:27.755Z,12.5
2019-04-03T17:36:31.608Z,12.7
2019-04-03T17:41:38.658Z,12.8
2019-04-03T17:46:43.661Z,12.1
2019-04-03T17:51:52.436Z,11.8
2019-04-03T17:56:57.618Z,11
2019-04-03T18:02:02.524Z,11.4
2019-04-03T18:07:07.750Z,11
2019-04-03T18:12:21.855Z,11.4
2019-04-03T18:17:16.020Z,11.8
2019-04-03T18:22:23.526Z,10.2
2019-04-03T18:27:33.211Z,10.1
2019-04-03T18:32:38.737Z,10.6
2019-04-03T18:37:43.875Z,10.6
2019-04-03T18:42:51.044Z,10.9
2019-04-03T18:47:56.476Z,11.5
2019-04-03T18:53:01.560Z,10.8
2019-04-03T18:58:06.613Z,11.3
2019-04-03T19:03:11.965Z,11.4
2019-04-03T19:08:19.775Z,11
2019-04-03T19:13:25.034Z,10.6
2019-04-03T19:18:28.778Z,10.9
2019-04-03T19:23:29.397Z,10.6
2019-04-03T19:28:35.834Z,10.8
2019-04-03T19:33:45.838Z,11.1
2019-04-03T19:38:44.568Z,11.2
2019-04-03T19:43:49.714Z,10.8
2019-04-03T19:48:57.442Z,10.9
2019-04-03T19:54:02.769Z,10.9
2019-04-03T19:59:08.121Z,11
2019-04-03T20:04:16.585Z,11.1
2019-04-03T20:09:21.937Z,12
2019-04-03T20:14:34.735Z,11.7
2019-04-03T20:19:29.938Z,11.8
2019-04-03T20:24:34.851Z,11.6
2019-04-03T20:29:40.016Z,11.6
2019-04-03T20:34:46.323Z,11.7
2019-04-03T20:39:50.246Z,11.8
2019-04-03T20:44:55.363Z,11.3
2019-04-03T20:50:06.538Z,11.3
2019-04-03T20:55:12.372Z,11.3
2019-04-03T21:00:20.200Z,11.3
2019-04-03T21:05:25.554Z,10.6
2019-04-03T21:10:32.688Z,10.7
2019-04-03T21:15:38.118Z,10.8
2019-04-03T21:20:43.416Z,10.7
2019-04-03T21:25:48.524Z,9.9
2019-04-03T21:30:55.561Z,10.1
2019-04-03T21:36:00.696Z,10.3
2019-04-03T21:41:05.715Z,9.6
2019-04-03T21:46:10.863Z,9.3
2019-04-03T21:51:16.223Z,9.1
2019-04-03T21:56:24.098Z,9
2019-04-03T22:01:29.286Z,9.2
2019-04-03T22:06:34.507Z,8.7
2019-04-03T22:11:40.053Z,8.8
2019-04-03T22:16:45.254Z,9
2019-04-03T22:21:50.593Z,9
2019-04-03T22:26:55.676Z,8.5
2019-04-03T22:32:00.970Z,8.5
2019-04-03T22:37:05.744Z,8.6
2019-04-03T22:42:12.970Z,8.6
2019-04-03T22:47:20.466Z,8.3
2019-04-03T22:52:29.551Z,8.3
2019-04-03T22:57:34.588Z,8.5
2019-04-03T23:02:39.648Z,9.1
2019-04-03T23:07:44.920Z,8.4
2019-04-03T23:12:48.815Z,8.2
2019-04-03T23:17:54.025Z,8
2019-04-03T23:22:59.064Z,8.6
2019-04-03T23:28:04.485Z,7.9
2019-04-03T23:33:08.571Z,7.8
2019-04-03T23:38:13.780Z,7.7
2019-04-03T23:43:19.453Z,7.6
2019-04-03T23:48:25.129Z,7.7
2019-04-03T23:53:32.932Z,7.5
2019-04-03T23:58:36.892Z,7.2
